createdAt,value
2023-01-08T00:01:35.848Z,1008.78
2023-01-08T00:03:51.707Z,1008.84
2023-01-08T00:06:07.028Z,1008.75
2023-01-08T00:08:22.592Z,1008.70
2023-01-08T00:10:40.677Z,1008.70
2023-01-08T00:12:56.285Z,1008.64
2023-01-08T00:15:11.866Z,1008.65
2023-01-08T00:17:32.462Z,1008.55
2023-01-08T00:19:49.041Z,1008.57
2023-01-08T00:22:04.664Z,1008.51
2023-01-08T00:24:22.753Z,1008.50
2023-01-08T00:26:40.913Z,1008.48
2023-01-08T00:28:58.924Z,1008.49
2023-01-08T00:31:14.598Z,1008.41
2023-01-08T00:33:32.599Z,1008.39
2023-01-08T00:35:50.686Z,1008.37
2023-01-08T00:38:06.383Z,1008.29
2023-01-08T00:40:21.870Z,1008.25
2023-01-08T00:42:39.998Z,1008.18
2023-01-08T00:44:55.566Z,1008.14
2023-01-08T00:47:13.661Z,1008.17
2023-01-08T00:49:32.791Z,1008.17
2023-01-08T00:51:49.331Z,1008.08
2023-01-08T00:54:07.429Z,1008.00
2023-01-08T00:56:23.002Z,1008.03
2023-01-08T00:58:41.095Z,1007.99
2023-01-08T01:00:52.148Z,1008.03
2023-01-08T01:03:07.630Z,1008.05
2023-01-08T01:05:25.728Z,1008.07
2023-01-08T01:07:41.316Z,1008.04
2023-01-08T01:09:56.914Z,1008.00
2023-01-08T01:12:13.533Z,1007.99
2023-01-08T01:14:30.077Z,1008.03
2023-01-08T01:16:44.711Z,1008.01
2023-01-08T01:19:00.225Z,1007.90
2023-01-08T01:21:18.306Z,1007.94
2023-01-08T01:23:33.917Z,1007.90
2023-01-08T01:25:49.498Z,1007.77
2023-01-08T01:28:05.489Z,1007.81
2023-01-08T01:30:23.159Z,1007.98
2023-01-08T01:32:37.830Z,1007.94
2023-01-08T01:34:52.496Z,1007.90
2023-01-08T01:37:10.496Z,1007.88
2023-01-08T01:39:24.064Z,1007.87
2023-01-08T01:41:42.149Z,1007.81
2023-01-08T01:43:57.739Z,1007.75
2023-01-08T01:46:13.420Z,1007.81
2023-01-08T01:48:31.425Z,1007.78
2023-01-08T01:50:49.517Z,1007.82
2023-01-08T01:53:07.601Z,1007.77
2023-01-08T01:55:25.691Z,1007.71
2023-01-08T01:57:41.312Z,1007.67
2023-01-08T01:59:59.355Z,1007.70
2023-01-08T02:02:15.155Z,1007.67
2023-01-08T02:04:30.579Z,1007.66
2023-01-08T02:06:48.671Z,1007.62
2023-01-08T02:09:06.772Z,1007.64
2023-01-08T02:11:21.210Z,1007.58
2023-01-08T02:13:35.958Z,1007.51
2023-01-08T02:15:54.053Z,1007.37
2023-01-08T02:18:12.125Z,1007.41
2023-01-08T02:20:30.301Z,1007.40
2023-01-08T02:22:48.331Z,1007.40
2023-01-08T02:25:06.978Z,1007.42
2023-01-08T02:27:25.334Z,1007.39
2023-01-08T02:29:40.137Z,1007.36
2023-01-08T02:31:56.558Z,1007.38
2023-01-08T02:34:13.882Z,1007.33
2023-01-08T02:36:31.972Z,1007.33
2023-01-08T02:38:47.528Z,1007.23
2023-01-08T02:41:04.135Z,1007.22
2023-01-08T02:43:19.814Z,1007.21
2023-01-08T02:45:35.345Z,1007.11
2023-01-08T02:47:49.011Z,1007.11
2023-01-08T02:50:07.081Z,1007.07
2023-01-08T02:52:22.685Z,1007.01
2023-01-08T02:54:39.124Z,1006.99
2023-01-08T02:56:57.217Z,1006.93
2023-01-08T02:59:15.461Z,1006.93
2023-01-08T03:01:31.185Z,1006.98
2023-01-08T03:03:49.195Z,1006.91
2023-01-08T03:06:04.779Z,1006.80
2023-01-08T03:08:22.827Z,1006.78
2023-01-08T03:10:40.896Z,1006.85
2023-01-08T03:12:55.496Z,1006.84
2023-01-08T03:15:11.052Z,1006.88
2023-01-08T03:17:24.685Z,1006.86
2023-01-08T03:19:40.238Z,1006.88
2023-01-08T03:21:54.836Z,1006.93
2023-01-08T03:24:11.400Z,1006.93
2023-01-08T03:26:27.020Z,1006.91
2023-01-08T03:28:45.164Z,1006.84
2023-01-08T03:31:00.713Z,1006.78
2023-01-08T03:33:15.257Z,1006.81
2023-01-08T03:35:30.851Z,1006.78
2023-01-08T03:37:46.447Z,1006.72
2023-01-08T03:40:04.565Z,1006.83
2023-01-08T03:42:20.150Z,1006.89
2023-01-08T03:44:36.198Z,1006.83
2023-01-08T03:46:53.784Z,1006.69
2023-01-08T03:49:11.864Z,1006.62
2023-01-08T03:51:29.962Z,1006.71
2023-01-08T03:53:48.026Z,1006.83
2023-01-08T03:56:04.619Z,1006.87
2023-01-08T03:58:19.206Z,1006.85
2023-01-08T04:00:34.796Z,1006.88
2023-01-08T04:02:52.889Z,1006.78
2023-01-08T04:05:10.966Z,1006.76
2023-01-08T04:07:29.021Z,1006.80
2023-01-08T04:09:47.129Z,1006.77
2023-01-08T04:12:01.716Z,1006.69
2023-01-08T04:14:17.326Z,1006.84
2023-01-08T04:16:35.371Z,1006.82
2023-01-08T04:18:50.939Z,1006.84
2023-01-08T04:21:06.526Z,1006.83
2023-01-08T04:23:23.119Z,1006.82
2023-01-08T04:25:41.256Z,1006.72
2023-01-08T04:27:56.810Z,1006.59
2023-01-08T04:30:12.388Z,1006.57
2023-01-08T04:32:30.500Z,1006.49
2023-01-08T04:34:48.539Z,1006.49
2023-01-08T04:37:04.166Z,1006.51
2023-01-08T04:39:22.253Z,1006.56
2023-01-08T04:41:37.800Z,1006.61
2023-01-08T04:43:53.385Z,1006.60
2023-01-08T04:46:08.820Z,1006.54
2023-01-08T04:48:22.555Z,1006.56
2023-01-08T04:50:38.108Z,1006.49
2023-01-08T04:52:56.244Z,1006.52
2023-01-08T04:55:11.780Z,1006.51
2023-01-08T04:57:29.887Z,1006.49
2023-01-08T04:59:43.538Z,1006.51
2023-01-08T05:01:58.216Z,1006.53
2023-01-08T05:04:13.645Z,1006.50
2023-01-08T05:06:31.734Z,1006.46
2023-01-08T05:08:49.821Z,1006.42
2023-01-08T05:11:04.448Z,1006.40
2023-01-08T05:13:22.493Z,1006.34
2023-01-08T05:15:37.996Z,1006.35
2023-01-08T05:17:53.517Z,1006.30
2023-01-08T05:20:11.302Z,1006.32
2023-01-08T05:22:26.359Z,1006.30
2023-01-08T05:24:44.432Z,1006.33
2023-01-08T05:27:00.048Z,1006.35
2023-01-08T05:29:16.619Z,1006.33
2023-01-08T05:31:34.731Z,1006.30
2023-01-08T05:33:49.301Z,1006.25
2023-01-08T05:36:04.939Z,1006.24
2023-01-08T05:38:22.999Z,1006.14
2023-01-08T05:40:39.919Z,1006.06
2023-01-08T05:42:55.520Z,1006.01
2023-01-08T05:45:13.615Z,1006.01
2023-01-08T05:47:28.174Z,1006.00
2023-01-08T05:49:46.253Z,1005.98
2023-01-08T05:52:04.359Z,1005.96
2023-01-08T05:54:22.432Z,1005.94
2023-01-08T05:56:40.532Z,1005.95
2023-01-08T05:58:56.164Z,1005.94
2023-01-08T06:01:14.252Z,1005.93
2023-01-08T06:03:32.278Z,1005.87
2023-01-08T06:05:47.845Z,1005.82
2023-01-08T06:08:08.429Z,1005.86
2023-01-08T06:10:24.050Z,1005.83
2023-01-08T06:12:39.624Z,1005.85
2023-01-08T06:14:54.221Z,1005.87
2023-01-08T06:17:09.645Z,1005.84
2023-01-08T06:19:29.915Z,1005.83
2023-01-08T06:21:47.984Z,1005.79
2023-01-08T06:24:03.561Z,1005.83
2023-01-08T06:26:19.083Z,1005.81
2023-01-08T06:28:32.766Z,1005.76
2023-01-08T06:30:48.184Z,1005.79
2023-01-08T06:33:05.414Z,1005.77
2023-01-08T06:35:23.487Z,1005.71
2023-01-08T06:37:39.127Z,1005.73
2023-01-08T06:39:54.688Z,1005.74
2023-01-08T06:42:10.320Z,1005.70
2023-01-08T06:44:28.380Z,1005.71
2023-01-08T06:46:44.090Z,1005.70
2023-01-08T06:49:02.123Z,1005.77
2023-01-08T06:51:17.683Z,1005.76
2023-01-08T06:53:35.833Z,1005.75
2023-01-08T06:55:48.840Z,1005.74
2023-01-08T06:58:03.424Z,1005.66
2023-01-08T07:00:21.716Z,1005.70
2023-01-08T07:02:36.459Z,1005.73
2023-01-08T07:04:50.689Z,1005.72
2023-01-08T07:07:06.264Z,1005.72
2023-01-08T07:09:24.865Z,1005.72
2023-01-08T07:11:42.422Z,1005.72
2023-01-08T07:14:13.340Z,1005.70
2023-01-08T07:16:30.458Z,1005.72
2023-01-08T07:18:48.024Z,1005.75
2023-01-08T07:21:04.450Z,1005.76
2023-01-08T07:23:21.686Z,1005.80
2023-01-08T07:25:37.272Z,1005.79
2023-01-08T07:27:55.348Z,1005.80
2023-01-08T07:30:20.912Z,1005.83
2023-01-08T07:31:10.915Z,1005.87
2023-01-08T07:33:25.491Z,1005.91
2023-01-08T07:35:44.551Z,1005.94
2023-01-08T07:38:00.173Z,1005.90
2023-01-08T07:40:18.407Z,1005.96
2023-01-08T07:42:36.351Z,1005.87
2023-01-08T07:44:54.541Z,1005.91
2023-01-08T07:47:10.053Z,1005.91
2023-01-08T07:49:25.484Z,1005.88
2023-01-08T07:51:42.771Z,1005.89
2023-01-08T08:01:13.426Z,1005.81
2023-01-08T08:02:50.880Z,1005.77
2023-01-08T08:10:19.550Z,1005.71
2023-01-08T08:16:19.280Z,1005.68
2023-01-08T08:22:35.060Z,1005.71
2023-01-08T08:24:37.849Z,1005.70
2023-01-08T08:26:52.047Z,1005.68
2023-01-08T08:30:46.514Z,1005.59
2023-01-08T08:32:46.665Z,1005.58
2023-01-08T08:35:03.466Z,1005.54
2023-01-08T08:37:22.905Z,1005.42
2023-01-08T08:39:48.370Z,1005.41
2023-01-08T08:42:07.575Z,1005.44
2023-01-08T08:44:32.878Z,1005.48
2023-01-08T08:46:30.779Z,1005.54
2023-01-08T08:48:38.771Z,1005.52
2023-01-08T08:50:45.891Z,1005.44
2023-01-08T08:53:06.160Z,1005.38
2023-01-08T08:55:13.384Z,1005.43
2023-01-08T08:58:52.136Z,1005.39
2023-01-08T09:03:57.011Z,1005.32
2023-01-08T09:05:59.562Z,1005.33
2023-01-08T09:08:12.539Z,1005.31
2023-01-08T09:10:30.617Z,1005.33
2023-01-08T09:12:46.208Z,1005.26
2023-01-08T09:15:04.276Z,1005.29
2023-01-08T09:17:23.155Z,1005.25
2023-01-08T09:19:40.448Z,1005.25
2023-01-08T09:21:58.529Z,1005.27
2023-01-08T09:24:20.176Z,1005.33
2023-01-08T09:26:38.260Z,1005.35
2023-01-08T09:28:56.391Z,1005.37
2023-01-08T09:31:17.037Z,1005.38
2023-01-08T09:33:37.546Z,1005.41
2023-01-08T09:35:55.652Z,1005.43
2023-01-08T09:38:14.574Z,1005.45
2023-01-08T09:40:31.854Z,1005.49
2023-01-08T09:42:48.550Z,1005.47
2023-01-08T09:45:03.288Z,1005.55
2023-01-08T09:47:17.876Z,1005.52
2023-01-08T09:49:34.468Z,1005.59
2023-01-08T09:51:50.052Z,1005.58
2023-01-08T09:54:05.649Z,1005.61
2023-01-08T09:55:05.610Z,1005.57
2023-01-08T09:57:26.259Z,1005.61
2023-01-08T09:59:44.334Z,1005.60
2023-01-08T10:02:00.044Z,1005.53
2023-01-08T10:04:17.998Z,1005.49
2023-01-08T10:06:36.122Z,1005.48
2023-01-08T10:08:54.660Z,1005.49
2023-01-08T10:11:08.769Z,1005.40
2023-01-08T10:13:24.376Z,1005.36
2023-01-08T10:15:42.454Z,1005.34
2023-01-08T10:18:00.536Z,1005.26
2023-01-08T10:20:19.192Z,1005.23
2023-01-08T10:22:38.132Z,1005.22
2023-01-08T10:24:56.131Z,1005.19
2023-01-08T10:27:14.202Z,1005.21
2023-01-08T10:29:30.918Z,1005.13
2023-01-08T10:31:46.543Z,1005.07
2023-01-08T10:34:05.532Z,1005.02
2023-01-08T10:36:25.774Z,1004.99
2023-01-08T10:38:46.990Z,1004.92
2023-01-08T10:41:07.650Z,1004.93
2023-01-08T10:43:28.179Z,1004.86
2023-01-08T10:45:48.875Z,1004.83
2023-01-08T10:48:03.510Z,1004.84
2023-01-08T10:50:21.522Z,1004.85
2023-01-08T10:52:39.565Z,1004.79
2023-01-08T10:55:00.326Z,1004.84
2023-01-08T10:57:20.561Z,1004.79
2023-01-08T10:59:36.301Z,1004.83
2023-01-08T11:01:52.398Z,1004.79
2023-01-08T11:04:12.636Z,1004.76
2023-01-08T11:06:28.194Z,1004.66
2023-01-08T11:08:42.783Z,1004.64
2023-01-08T11:11:00.695Z,1004.57
2023-01-08T11:13:18.718Z,1004.63
2023-01-08T11:15:35.378Z,1004.51
2023-01-08T11:17:53.282Z,1004.43
2023-01-08T11:20:11.330Z,1004.44
2023-01-08T11:22:29.882Z,1004.42
2023-01-08T11:24:47.544Z,1004.35
2023-01-08T11:27:03.115Z,1004.37
2023-01-08T11:29:21.501Z,1004.40
2023-01-08T11:31:39.780Z,1004.37
2023-01-08T11:33:57.716Z,1004.35
2023-01-08T11:36:16.119Z,1004.22
2023-01-08T11:38:33.944Z,1004.27
2023-01-08T11:40:54.626Z,1004.43
2023-01-08T11:43:11.160Z,1004.39
2023-01-08T11:45:27.827Z,1004.35
2023-01-08T11:47:45.899Z,1004.23
2023-01-08T11:50:03.996Z,1004.12
2023-01-08T11:52:22.110Z,1004.12
2023-01-08T11:54:38.441Z,1004.09
2023-01-08T11:56:56.362Z,1004.05
2023-01-08T11:59:14.848Z,1003.97
2023-01-08T12:01:36.843Z,1003.91
2023-01-08T12:03:53.519Z,1003.83
2023-01-08T12:06:14.027Z,1003.81
2023-01-08T12:08:32.277Z,1003.86
2023-01-08T12:10:51.358Z,1003.84
2023-01-08T12:22:28.675Z,1003.89
2023-01-08T13:10:42.648Z,1003.61
2023-01-08T13:14:23.789Z,1003.63
2023-01-08T13:29:52.857Z,1003.52
2023-01-08T14:13:03.101Z,1003.16
2023-01-08T14:15:20.716Z,1003.18
2023-01-08T14:17:38.726Z,1003.20
2023-01-08T14:19:59.739Z,1003.10
2023-01-08T14:22:16.228Z,1003.16
2023-01-08T14:24:34.394Z,1003.15
2023-01-08T14:26:49.095Z,1003.16
2023-01-08T14:29:07.391Z,1003.13
2023-01-08T14:31:39.507Z,1003.14
2023-01-08T14:33:57.120Z,1003.16
2023-01-08T14:36:14.760Z,1003.17
2023-01-08T14:38:32.353Z,1003.15
2023-01-08T14:40:47.970Z,1003.18
2023-01-08T14:43:06.372Z,1003.22
2023-01-08T14:45:26.982Z,1003.23
2023-01-08T14:47:41.305Z,1003.27
2023-01-08T14:49:55.759Z,1003.22
2023-01-08T14:52:13.956Z,1003.26
2023-01-08T14:54:32.139Z,1003.29
2023-01-08T14:56:47.957Z,1003.28
2023-01-08T14:59:05.608Z,1003.27
2023-01-08T15:01:27.215Z,1003.22
2023-01-08T15:03:40.108Z,1003.21
2023-01-08T15:05:57.948Z,1003.16
2023-01-08T15:08:18.569Z,1003.12
2023-01-08T15:10:39.543Z,1003.11
2023-01-08T15:12:59.916Z,1003.04
2023-01-08T15:15:17.840Z,1002.97
2023-01-08T15:17:36.908Z,1003.00
2023-01-08T15:19:57.564Z,1003.03
2023-01-08T15:22:18.124Z,1003.03
2023-01-08T15:24:39.109Z,1003.06
2023-01-08T15:26:56.953Z,1003.04
2023-01-08T15:29:17.746Z,1003.04
2023-01-08T15:31:33.570Z,1003.11
2023-01-08T15:33:52.476Z,1003.10
2023-01-08T15:36:13.144Z,1003.07
2023-01-08T15:38:31.209Z,1003.08
2023-01-08T15:40:46.814Z,1003.17
2023-01-08T15:43:07.963Z,1003.15
2023-01-08T15:45:25.608Z,1003.17
2023-01-08T15:47:46.080Z,1003.14
2023-01-08T15:48:47.100Z,1003.10
2023-01-08T15:51:05.535Z,1003.15
2023-01-08T15:53:22.422Z,1003.20
2023-01-08T15:55:40.378Z,1003.21
2023-01-08T15:57:56.919Z,1003.23
2023-01-08T16:00:14.990Z,1003.22
2023-01-08T16:02:35.673Z,1003.22
2023-01-08T16:04:53.332Z,1003.21
2023-01-08T16:07:11.781Z,1003.15
2023-01-08T16:09:28.530Z,1003.09
2023-01-08T16:12:18.640Z,1003.08
2023-01-08T16:14:35.450Z,1003.10
2023-01-08T16:16:53.382Z,1003.11
2023-01-08T16:19:10.997Z,1003.12
2023-01-08T16:21:30.717Z,1003.11
2023-01-08T16:23:50.946Z,1003.01
2023-01-08T16:27:26.614Z,1003.00
2023-01-08T16:29:44.480Z,1002.97
2023-01-08T16:32:03.770Z,1002.97
2023-01-08T16:34:21.040Z,1003.01
2023-01-08T16:37:13.094Z,1003.01
2023-01-08T16:39:31.468Z,1003.09
2023-01-08T16:41:49.386Z,1003.05
2023-01-08T16:50:44.644Z,1002.91
2023-01-08T16:53:05.237Z,1002.93
2023-01-08T16:55:25.866Z,1002.89
2023-01-08T16:57:46.416Z,1002.83
2023-01-08T17:00:03.077Z,1002.75
2023-01-08T17:02:22.170Z,1002.68
2023-01-08T17:05:41.896Z,1002.70
2023-01-08T17:18:19.941Z,1002.59
2023-01-08T17:24:13.539Z,1002.53
2023-01-08T17:26:35.196Z,1002.44
2023-01-08T17:28:55.699Z,1002.43
2023-01-08T17:31:16.420Z,1002.44
2023-01-08T17:33:35.384Z,1002.45
2023-01-08T17:35:55.945Z,1002.45
2023-01-08T17:38:14.163Z,1002.36
2023-01-08T17:40:30.657Z,1002.33
2023-01-08T17:42:48.801Z,1002.30
2023-01-08T17:45:06.800Z,1002.27
2023-01-08T17:47:27.667Z,1002.26
2023-01-08T17:49:48.045Z,1002.24
2023-01-08T17:52:08.590Z,1002.20
2023-01-08T17:54:29.318Z,1002.26
2023-01-08T17:56:50.982Z,1002.28
2023-01-08T17:59:11.529Z,1002.31
2023-01-08T18:01:29.698Z,1002.27
2023-01-08T18:03:47.779Z,1002.33
2023-01-08T18:06:05.449Z,1002.34
2023-01-08T18:08:23.870Z,1002.37
2023-01-08T18:10:41.998Z,1002.30
2023-01-08T18:13:02.565Z,1002.24
2023-01-08T18:15:23.224Z,1002.23
2023-01-08T18:17:41.464Z,1002.22
2023-01-08T18:19:53.719Z,1002.28
2023-01-08T18:22:25.147Z,1002.22
2023-01-08T18:24:45.695Z,1002.19
2023-01-08T18:27:03.809Z,1002.16
2023-01-08T18:29:24.853Z,1002.21
2023-01-08T18:32:17.742Z,1002.16
2023-01-08T18:34:35.774Z,1002.06
2023-01-08T18:36:54.087Z,1002.01
2023-01-08T18:39:52.648Z,1001.94
2023-01-08T18:42:11.055Z,1001.90
2023-01-08T18:48:34.570Z,1001.94
2023-01-08T18:53:02.048Z,1001.95
2023-01-08T19:34:37.547Z,1001.89
2023-01-08T19:56:40.523Z,1001.68
2023-01-08T20:01:20.281Z,1001.56
2023-01-08T20:23:44.033Z,1001.36
2023-01-08T20:37:55.800Z,1001.22
2023-01-08T20:59:51.082Z,1000.97
2023-01-08T21:03:38.491Z,1000.96
2023-01-08T21:05:55.007Z,1000.97
2023-01-08T21:08:15.794Z,1000.96
2023-01-08T21:10:32.383Z,1000.97
2023-01-08T21:12:49.110Z,1000.89
2023-01-08T21:15:07.411Z,1000.90
2023-01-08T21:17:45.409Z,1000.90
2023-01-08T21:20:13.474Z,1000.88
2023-01-08T21:22:35.140Z,1000.83
2023-01-08T21:24:52.971Z,1000.77
2023-01-08T21:27:14.407Z,1000.85
2023-01-08T21:29:35.330Z,1000.76
2023-01-08T21:31:52.629Z,1000.72
2023-01-08T21:34:12.201Z,1000.71
2023-01-08T21:36:27.667Z,1000.77
2023-01-08T21:38:47.191Z,1000.65
2023-01-08T21:41:02.708Z,1000.68
2023-01-08T21:43:19.438Z,1000.72
2023-01-08T21:45:46.822Z,1000.77
2023-01-08T21:48:05.627Z,1000.74
2023-01-08T21:50:24.810Z,1000.71
2023-01-08T21:54:23.510Z,1000.62
2023-01-08T21:57:21.560Z,1000.57
2023-01-08T21:59:44.585Z,1000.55
2023-01-08T22:02:02.836Z,1000.44
2023-01-08T22:05:32.818Z,1000.47
2023-01-08T22:13:26.217Z,1000.39
2023-01-08T22:16:31.145Z,1000.29
2023-01-08T22:19:02.232Z,1000.24
2023-01-08T22:21:20.194Z,1000.25
2023-01-08T22:23:39.504Z,1000.25
2023-01-08T22:26:31.921Z,1000.16
2023-01-08T22:28:53.543Z,1000.11
2023-01-08T22:31:15.508Z,1000.17
2023-01-08T22:35:18.795Z,1000.20
2023-01-08T22:37:40.047Z,1000.20
2023-01-08T22:40:23.192Z,1000.24
2023-01-08T22:42:59.332Z,1000.20
2023-01-08T22:45:51.653Z,1000.23
2023-01-08T22:48:08.031Z,1000.22
2023-01-08T22:50:37.750Z,1000.20
2023-01-08T22:53:15.037Z,1000.14
2023-01-08T22:55:40.739Z,1000.08
2023-01-08T22:58:15.763Z,1000.05
2023-01-08T23:00:33.236Z,1000.03
2023-01-08T23:02:49.019Z,1000.02
2023-01-08T23:05:07.539Z,1000.04
2023-01-08T23:07:28.427Z,999.99
2023-01-08T23:09:48.878Z,1000.00
2023-01-08T23:12:09.416Z,1000.01
2023-01-08T23:14:29.377Z,999.97
2023-01-08T23:16:49.382Z,999.85
2023-01-08T23:19:11.208Z,999.83
2023-01-08T23:21:30.557Z,999.81
2023-01-08T23:23:47.221Z,999.80
2023-01-08T23:26:03.745Z,999.73
2023-01-08T23:28:25.495Z,999.69
2023-01-08T23:30:47.027Z,999.61
2023-01-08T23:33:09.018Z,999.57
2023-01-08T23:35:27.203Z,999.61
2023-01-08T23:37:49.043Z,999.64
2023-01-08T23:40:08.500Z,999.60
2023-01-08T23:42:28.042Z,999.67
2023-01-08T23:44:48.415Z,999.61
2023-01-08T23:47:10.253Z,999.58
2023-01-08T23:49:49.933Z,999.55
2023-01-08T23:52:10.158Z,999.50
2023-01-08T23:54:31.717Z,999.51
2023-01-08T23:56:58.677Z,999.54
2023-01-08T23:59:41.887Z,999.54
